sensor_id;sensor_type;location;lat;lon;timestamp;temperature;humidity
37518;DHT22;23366;52.498;13.446;2023-06-26T00:01:12;21.70;99.90
37518;DHT22;23366;52.498;13.446;2023-06-26T00:03:38;21.70;99.90
37518;DHT22;23366;52.498;13.446;2023-06-26T00:06:03;21.70;99.90
37518;DHT22;23366;52.498;13.446;2023-06-26T00:08:29;21.70;99.90
37518;DHT22;23366;52.498;13.446;2023-06-26T00:10:54;21.60;99.90
37518;DHT22;23366;52.498;13.446;2023-06-26T00:13:20;21.60;99.90
37518;DHT22;23366;52.498;13.446;2023-06-26T00:15:46;21.60;99.90
37518;DHT22;23366;52.498;13.446;2023-06-26T00:18:11;21.50;99.90
37518;DHT22;23366;52.498;13.446;2023-06-26T00:20:37;21.50;99.90
37518;DHT22;23366;52.498;13.446;2023-06-26T00:23:02;21.50;99.90
37518;DHT22;23366;52.498;13.446;2023-06-26T00:25:33;21.50;99.90
37518;DHT22;23366;52.498;13.446;2023-06-26T00:27:59;21.40;99.90
37518;DHT22;23366;52.498;13.446;2023-06-26T00:30:24;21.40;99.90
37518;DHT22;23366;52.498;13.446;2023-06-26T00:32:50;21.40;99.90
37518;DHT22;23366;52.498;13.446;2023-06-26T00:35:16;21.30;99.90
37518;DHT22;23366;52.498;13.446;2023-06-26T00:37:42;21.30;99.90
37518;DHT22;23366;52.498;13.446;2023-06-26T00:40:08;21.30;99.90
37518;DHT22;23366;52.498;13.446;2023-06-26T00:42:34;21.30;99.90
37518;DHT22;23366;52.498;13.446;2023-06-26T00:45:00;21.30;99.90
37518;DHT22;23366;52.498;13.446;2023-06-26T00:47:26;21.30;99.90
37518;DHT22;23366;52.498;13.446;2023-06-26T00:49:52;21.20;99.90
37518;DHT22;23366;52.498;13.446;2023-06-26T00:52:20;21.20;99.90
37518;DHT22;23366;52.498;13.446;2023-06-26T00:54:45;21.20;99.90
37518;DHT22;23366;52.498;13.446;2023-06-26T00:57:11;21.20;99.90
37518;DHT22;23366;52.498;13.446;2023-06-26T00:59:37;21.10;99.90
37518;DHT22;23366;52.498;13.446;2023-06-26T01:02:03;21.10;99.90
37518;DHT22;23366;52.498;13.446;2023-06-26T01:04:29;21.10;99.90
37518;DHT22;23366;52.498;13.446;2023-06-26T01:06:58;21.10;99.90
37518;DHT22;23366;52.498;13.446;2023-06-26T01:09:24;21.10;99.90
37518;DHT22;23366;52.498;13.446;2023-06-26T01:11:50;21.10;99.90
37518;DHT22;23366;52.498;13.446;2023-06-26T01:14:16;21.10;99.90
37518;DHT22;23366;52.498;13.446;2023-06-26T01:16:43;21.10;99.90
37518;DHT22;23366;52.498;13.446;2023-06-26T01:19:20;21.10;99.90
37518;DHT22;23366;52.498;13.446;2023-06-26T01:22:07;21.10;99.90
37518;DHT22;23366;52.498;13.446;2023-06-26T01:24:44;21.10;99.90
37518;DHT22;23366;52.498;13.446;2023-06-26T01:27:11;21.10;99.90
37518;DHT22;23366;52.498;13.446;2023-06-26T01:29:37;21.10;99.90
37518;DHT22;23366;52.498;13.446;2023-06-26T01:32:04;21.10;99.90
37518;DHT22;23366;52.498;13.446;2023-06-26T01:34:30;21.10;99.90
37518;DHT22;23366;52.498;13.446;2023-06-26T01:36:56;21.10;99.90
37518;DHT22;23366;52.498;13.446;2023-06-26T01:39:21;21.10;99.90
37518;DHT22;23366;52.498;13.446;2023-06-26T01:41:47;21.10;99.90
37518;DHT22;23366;52.498;13.446;2023-06-26T01:44:29;21.10;99.90
37518;DHT22;23366;52.498;13.446;2023-06-26T01:47:01;21.00;99.90
37518;DHT22;23366;52.498;13.446;2023-06-26T01:49:47;21.00;99.90
37518;DHT22;23366;52.498;13.446;2023-06-26T01:57:15;21.00;99.90
37518;DHT22;23366;52.498;13.446;2023-06-26T01:59:44;21.00;99.90
37518;DHT22;23366;52.498;13.446;2023-06-26T02:02:11;20.90;99.90
37518;DHT22;23366;52.498;13.446;2023-06-26T02:04:36;20.90;99.90
37518;DHT22;23366;52.498;13.446;2023-06-26T02:07:03;20.90;99.90
37518;DHT22;23366;52.498;13.446;2023-06-26T02:09:31;20.90;99.90
37518;DHT22;23366;52.498;13.446;2023-06-26T02:11:56;20.90;99.90
37518;DHT22;23366;52.498;13.446;2023-06-26T02:14:22;20.80;99.90
37518;DHT22;23366;52.498;13.446;2023-06-26T02:16:47;20.80;99.90
37518;DHT22;23366;52.498;13.446;2023-06-26T02:19:13;20.80;99.90
37518;DHT22;23366;52.498;13.446;2023-06-26T02:21:49;20.80;99.90
37518;DHT22;23366;52.498;13.446;2023-06-26T02:24:14;20.80;99.90
37518;DHT22;23366;52.498;13.446;2023-06-26T02:26:40;20.80;99.90
37518;DHT22;23366;52.498;13.446;2023-06-26T02:29:06;20.70;99.90
37518;DHT22;23366;52.498;13.446;2023-06-26T02:31:31;20.70;99.90
37518;DHT22;23366;52.498;13.446;2023-06-26T02:33:57;20.70;99.90
37518;DHT22;23366;52.498;13.446;2023-06-26T02:36:22;20.70;99.90
37518;DHT22;23366;52.498;13.446;2023-06-26T02:38:48;20.70;99.90
37518;DHT22;23366;52.498;13.446;2023-06-26T02:41:13;20.60;99.90
37518;DHT22;23366;52.498;13.446;2023-06-26T02:43:39;20.60;99.90
37518;DHT22;23366;52.498;13.446;2023-06-26T02:46:04;20.60;99.90
37518;DHT22;23366;52.498;13.446;2023-06-26T02:48:30;20.60;99.90
37518;DHT22;23366;52.498;13.446;2023-06-26T02:50:55;20.60;99.90
37518;DHT22;23366;52.498;13.446;2023-06-26T02:53:21;20.50;99.90
37518;DHT22;23366;52.498;13.446;2023-06-26T02:55:46;20.50;99.90
37518;DHT22;23366;52.498;13.446;2023-06-26T02:58:13;20.50;99.90
37518;DHT22;23366;52.498;13.446;2023-06-26T03:00:38;20.50;99.90
37518;DHT22;23366;52.498;13.446;2023-06-26T03:03:07;20.50;99.90
37518;DHT22;23366;52.498;13.446;2023-06-26T03:05:33;20.50;99.90
37518;DHT22;23366;52.498;13.446;2023-06-26T03:07:58;20.50;99.90
37518;DHT22;23366;52.498;13.446;2023-06-26T03:10:24;20.50;99.90
37518;DHT22;23366;52.498;13.446;2023-06-26T03:12:49;20.50;99.90
37518;DHT22;23366;52.498;13.446;2023-06-26T03:15:15;20.50;99.90
37518;DHT22;23366;52.498;13.446;2023-06-26T03:17:41;20.50;99.90
37518;DHT22;23366;52.498;13.446;2023-06-26T03:20:07;20.40;99.90
37518;DHT22;23366;52.498;13.446;2023-06-26T03:22:33;20.40;99.90
37518;DHT22;23366;52.498;13.446;2023-06-26T03:24:59;20.40;99.90
37518;DHT22;23366;52.498;13.446;2023-06-26T03:27:24;20.40;99.90
37518;DHT22;23366;52.498;13.446;2023-06-26T03:29:52;20.40;99.90
37518;DHT22;23366;52.498;13.446;2023-06-26T03:32:18;20.30;99.90
37518;DHT22;23366;52.498;13.446;2023-06-26T03:34:43;20.30;99.90
37518;DHT22;23366;52.498;13.446;2023-06-26T03:37:09;20.30;99.90
37518;DHT22;23366;52.498;13.446;2023-06-26T03:39:34;20.30;99.90
37518;DHT22;23366;52.498;13.446;2023-06-26T03:42:00;20.30;99.90
37518;DHT22;23366;52.498;13.446;2023-06-26T03:44:27;20.40;99.90
37518;DHT22;23366;52.498;13.446;2023-06-26T03:46:52;20.40;99.90
37518;DHT22;23366;52.498;13.446;2023-06-26T03:49:18;20.40;99.90
37518;DHT22;23366;52.498;13.446;2023-06-26T03:51:44;20.50;99.90
37518;DHT22;23366;52.498;13.446;2023-06-26T03:54:10;20.60;99.90
37518;DHT22;23366;52.498;13.446;2023-06-26T03:56:35;20.80;99.90
37518;DHT22;23366;52.498;13.446;2023-06-26T03:59:01;20.90;99.90
37518;DHT22;23366;52.498;13.446;2023-06-26T04:01:27;21.00;99.90
37518;DHT22;23366;52.498;13.446;2023-06-26T04:03:53;21.10;99.90
37518;DHT22;23366;52.498;13.446;2023-06-26T04:06:18;21.20;99.90
37518;DHT22;23366;52.498;13.446;2023-06-26T04:08:44;21.30;99.90
37518;DHT22;23366;52.498;13.446;2023-06-26T04:11:09;21.40;99.90
37518;DHT22;23366;52.498;13.446;2023-06-26T04:13:35;21.50;99.90
37518;DHT22;23366;52.498;13.446;2023-06-26T04:16:00;21.60;99.90
37518;DHT22;23366;52.498;13.446;2023-06-26T04:18:26;21.80;99.90
37518;DHT22;23366;52.498;13.446;2023-06-26T04:21:09;21.80;99.90
37518;DHT22;23366;52.498;13.446;2023-06-26T04:23:36;21.90;99.90
37518;DHT22;23366;52.498;13.446;2023-06-26T04:26:02;22.00;99.90
37518;DHT22;23366;52.498;13.446;2023-06-26T04:28:28;22.00;99.90
37518;DHT22;23366;52.498;13.446;2023-06-26T04:30:54;22.10;99.90
37518;DHT22;23366;52.498;13.446;2023-06-26T04:33:19;22.10;99.90
37518;DHT22;23366;52.498;13.446;2023-06-26T04:35:50;22.10;99.90
37518;DHT22;23366;52.498;13.446;2023-06-26T04:38:16;22.00;99.90
37518;DHT22;23366;52.498;13.446;2023-06-26T04:40:41;22.00;99.90
37518;DHT22;23366;52.498;13.446;2023-06-26T04:43:07;21.90;99.90
37518;DHT22;23366;52.498;13.446;2023-06-26T04:45:32;22.00;99.90
37518;DHT22;23366;52.498;13.446;2023-06-26T04:47:58;22.00;99.90
37518;DHT22;23366;52.498;13.446;2023-06-26T04:50:26;22.10;99.90
37518;DHT22;23366;52.498;13.446;2023-06-26T04:52:51;22.20;99.90
37518;DHT22;23366;52.498;13.446;2023-06-26T04:55:17;22.40;99.90
37518;DHT22;23366;52.498;13.446;2023-06-26T04:57:42;22.70;99.90
37518;DHT22;23366;52.498;13.446;2023-06-26T05:00:08;23.10;99.90
37518;DHT22;23366;52.498;13.446;2023-06-26T05:02:36;23.40;99.90
37518;DHT22;23366;52.498;13.446;2023-06-26T05:05:02;23.70;99.90
37518;DHT22;23366;52.498;13.446;2023-06-26T05:07:27;23.90;99.90
37518;DHT22;23366;52.498;13.446;2023-06-26T05:09:53;24.20;99.90
37518;DHT22;23366;52.498;13.446;2023-06-26T05:12:18;24.30;99.90
37518;DHT22;23366;52.498;13.446;2023-06-26T05:14:44;24.60;99.90
37518;DHT22;23366;52.498;13.446;2023-06-26T05:17:10;24.70;99.90
37518;DHT22;23366;52.498;13.446;2023-06-26T05:19:36;24.80;99.90
37518;DHT22;23366;52.498;13.446;2023-06-26T05:22:02;24.80;99.90
37518;DHT22;23366;52.498;13.446;2023-06-26T05:24:32;24.90;99.90
37518;DHT22;23366;52.498;13.446;2023-06-26T05:26:58;24.90;99.90
37518;DHT22;23366;52.498;13.446;2023-06-26T05:29:24;24.90;99.90
37518;DHT22;23366;52.498;13.446;2023-06-26T05:31:50;25.00;99.90
37518;DHT22;23366;52.498;13.446;2023-06-26T05:34:20;25.30;99.90
37518;DHT22;23366;52.498;13.446;2023-06-26T05:36:50;25.40;99.90
37518;DHT22;23366;52.498;13.446;2023-06-26T05:39:16;25.50;99.90
37518;DHT22;23366;52.498;13.446;2023-06-26T05:41:44;25.50;99.90
37518;DHT22;23366;52.498;13.446;2023-06-26T05:44:10;25.60;99.90
37518;DHT22;23366;52.498;13.446;2023-06-26T05:46:35;25.80;99.90
37518;DHT22;23366;52.498;13.446;2023-06-26T05:49:01;26.00;99.90
37518;DHT22;23366;52.498;13.446;2023-06-26T05:51:27;26.00;99.90
37518;DHT22;23366;52.498;13.446;2023-06-26T05:53:53;26.30;99.90
37518;DHT22;23366;52.498;13.446;2023-06-26T05:56:19;26.90;99.90
37518;DHT22;23366;52.498;13.446;2023-06-26T05:58:45;28.20;99.90
37518;DHT22;23366;52.498;13.446;2023-06-26T06:01:11;29.60;99.10
37518;DHT22;23366;52.498;13.446;2023-06-26T06:03:38;31.10;95.60
37518;DHT22;23366;52.498;13.446;2023-06-26T06:06:03;32.40;92.40
37518;DHT22;23366;52.498;13.446;2023-06-26T06:08:29;33.30;89.30
37518;DHT22;23366;52.498;13.446;2023-06-26T06:10:54;34.10;84.30
37518;DHT22;23366;52.498;13.446;2023-06-26T06:13:20;34.90;80.40
37518;DHT22;23366;52.498;13.446;2023-06-26T06:15:45;35.50;78.00
37518;DHT22;23366;52.498;13.446;2023-06-26T06:18:13;36.30;74.50
37518;DHT22;23366;52.498;13.446;2023-06-26T06:20:38;37.10;72.40
37518;DHT22;23366;52.498;13.446;2023-06-26T06:23:06;37.70;70.00
37518;DHT22;23366;52.498;13.446;2023-06-26T06:25:32;38.30;67.60
37518;DHT22;23366;52.498;13.446;2023-06-26T06:27:57;38.40;65.40
37518;DHT22;23366;52.498;13.446;2023-06-26T06:30:23;38.90;63.80
37518;DHT22;23366;52.498;13.446;2023-06-26T06:32:48;39.40;61.70
37518;DHT22;23366;52.498;13.446;2023-06-26T06:35:18;39.90;60.40
37518;DHT22;23366;52.498;13.446;2023-06-26T06:37:44;40.40;59.20
37518;DHT22;23366;52.498;13.446;2023-06-26T06:40:10;40.80;58.00
37518;DHT22;23366;52.498;13.446;2023-06-26T06:42:36;40.80;56.70
37518;DHT22;23366;52.498;13.446;2023-06-26T06:45:03;41.30;56.40
37518;DHT22;23366;52.498;13.446;2023-06-26T06:47:29;41.50;54.60
37518;DHT22;23366;52.498;13.446;2023-06-26T06:49:55;41.60;54.00
37518;DHT22;23366;52.498;13.446;2023-06-26T06:52:20;42.10;53.70
37518;DHT22;23366;52.498;13.446;2023-06-26T06:54:57;42.50;52.80
37518;DHT22;23366;52.498;13.446;2023-06-26T06:57:30;42.30;52.20
37518;DHT22;23366;52.498;13.446;2023-06-26T06:59:56;42.60;51.70
37518;DHT22;23366;52.498;13.446;2023-06-26T07:02:21;42.80;50.80
37518;DHT22;23366;52.498;13.446;2023-06-26T07:04:46;42.90;50.90
37518;DHT22;23366;52.498;13.446;2023-06-26T07:07:12;43.60;50.50
37518;DHT22;23366;52.498;13.446;2023-06-26T07:09:39;43.30;49.40
37518;DHT22;23366;52.498;13.446;2023-06-26T07:12:05;43.50;49.80
37518;DHT22;23366;52.498;13.446;2023-06-26T07:14:30;44.20;49.70
37518;DHT22;23366;52.498;13.446;2023-06-26T07:16:56;44.40;48.30
37518;DHT22;23366;52.498;13.446;2023-06-26T07:19:21;44.70;49.40
37518;DHT22;23366;52.498;13.446;2023-06-26T07:21:46;45.20;48.50
37518;DHT22;23366;52.498;13.446;2023-06-26T07:24:12;45.20;47.90
37518;DHT22;23366;52.498;13.446;2023-06-26T07:26:37;45.30;47.40
37518;DHT22;23366;52.498;13.446;2023-06-26T07:29:03;45.40;47.20
37518;DHT22;23366;52.498;13.446;2023-06-26T07:31:29;45.80;47.20
37518;DHT22;23366;52.498;13.446;2023-06-26T07:33:54;46.30;46.10
37518;DHT22;23366;52.498;13.446;2023-06-26T07:36:20;46.80;46.00
37518;DHT22;23366;52.498;13.446;2023-06-26T07:38:45;47.10;45.50
37518;DHT22;23366;52.498;13.446;2023-06-26T07:41:11;47.20;45.00
37518;DHT22;23366;52.498;13.446;2023-06-26T07:43:36;47.40;45.00
37518;DHT22;23366;52.498;13.446;2023-06-26T07:46:02;47.50;44.40
37518;DHT22;23366;52.498;13.446;2023-06-26T07:48:27;47.80;44.20
37518;DHT22;23366;52.498;13.446;2023-06-26T07:50:53;48.00;43.90
37518;DHT22;23366;52.498;13.446;2023-06-26T07:53:19;47.90;43.60
37518;DHT22;23366;52.498;13.446;2023-06-26T07:55:44;48.60;43.10
37518;DHT22;23366;52.498;13.446;2023-06-26T07:58:10;48.70;43.60
37518;DHT22;23366;52.498;13.446;2023-06-26T08:00:35;49.10;42.90
37518;DHT22;23366;52.498;13.446;2023-06-26T08:03:01;49.20;42.90
37518;DHT22;23366;52.498;13.446;2023-06-26T08:05:26;49.80;42.60
37518;DHT22;23366;52.498;13.446;2023-06-26T08:07:52;49.50;42.00
37518;DHT22;23366;52.498;13.446;2023-06-26T08:10:17;50.10;41.90
37518;DHT22;23366;52.498;13.446;2023-06-26T08:12:43;50.20;41.40
37518;DHT22;23366;52.498;13.446;2023-06-26T08:15:11;49.60;41.60
37518;DHT22;23366;52.498;13.446;2023-06-26T08:17:37;49.60;41.70
37518;DHT22;23366;52.498;13.446;2023-06-26T08:20:04;49.20;41.10
37518;DHT22;23366;52.498;13.446;2023-06-26T08:22:30;49.20;41.00
37518;DHT22;23366;52.498;13.446;2023-06-26T08:24:56;49.20;40.70
37518;DHT22;23366;52.498;13.446;2023-06-26T08:27:21;48.50;41.20
37518;DHT22;23366;52.498;13.446;2023-06-26T08:29:47;48.40;42.00
37518;DHT22;23366;52.498;13.446;2023-06-26T08:32:12;47.60;41.50
37518;DHT22;23366;52.498;13.446;2023-06-26T08:34:38;47.30;41.80
37518;DHT22;23366;52.498;13.446;2023-06-26T08:37:03;46.50;41.80
37518;DHT22;23366;52.498;13.446;2023-06-26T08:39:29;46.20;42.10
37518;DHT22;23366;52.498;13.446;2023-06-26T08:41:54;45.10;42.10
37518;DHT22;23366;52.498;13.446;2023-06-26T08:44:20;45.40;42.70
37518;DHT22;23366;52.498;13.446;2023-06-26T08:46:50;45.30;42.70
37518;DHT22;23366;52.498;13.446;2023-06-26T08:49:33;45.00;42.50
37518;DHT22;23366;52.498;13.446;2023-06-26T08:52:06;45.00;42.70
37518;DHT22;23366;52.498;13.446;2023-06-26T08:54:42;45.10;42.40
37518;DHT22;23366;52.498;13.446;2023-06-26T08:57:10;45.40;42.80
37518;DHT22;23366;52.498;13.446;2023-06-26T08:59:36;45.80;41.80
37518;DHT22;23366;52.498;13.446;2023-06-26T09:02:01;46.10;41.10
37518;DHT22;23366;52.498;13.446;2023-06-26T09:04:28;45.50;41.20
37518;DHT22;23366;52.498;13.446;2023-06-26T09:06:53;46.20;41.60
37518;DHT22;23366;52.498;13.446;2023-06-26T09:09:19;46.80;41.40
37518;DHT22;23366;52.498;13.446;2023-06-26T09:11:45;46.50;40.80
37518;DHT22;23366;52.498;13.446;2023-06-26T09:14:12;46.10;41.20
37518;DHT22;23366;52.498;13.446;2023-06-26T09:16:42;45.80;41.30
37518;DHT22;23366;52.498;13.446;2023-06-26T09:19:11;44.90;42.00
37518;DHT22;23366;52.498;13.446;2023-06-26T09:21:39;45.00;41.60
37518;DHT22;23366;52.498;13.446;2023-06-26T09:24:07;45.50;41.80
37518;DHT22;23366;52.498;13.446;2023-06-26T09:26:33;45.60;41.70
37518;DHT22;23366;52.498;13.446;2023-06-26T09:28:59;46.00;41.10
37518;DHT22;23366;52.498;13.446;2023-06-26T09:31:25;44.10;41.40
37518;DHT22;23366;52.498;13.446;2023-06-26T09:33:57;43.10;42.10
37518;DHT22;23366;52.498;13.446;2023-06-26T09:36:23;43.60;42.90
37518;DHT22;23366;52.498;13.446;2023-06-26T09:38:50;44.00;42.10
37518;DHT22;23366;52.498;13.446;2023-06-26T09:41:19;43.60;41.80
37518;DHT22;23366;52.498;13.446;2023-06-26T09:43:49;43.70;42.60
37518;DHT22;23366;52.498;13.446;2023-06-26T09:46:16;42.00;43.50
37518;DHT22;23366;52.498;13.446;2023-06-26T09:48:43;41.70;44.30
37518;DHT22;23366;52.498;13.446;2023-06-26T09:51:09;41.20;44.90
37518;DHT22;23366;52.498;13.446;2023-06-26T09:53:35;41.00;45.40
37518;DHT22;23366;52.498;13.446;2023-06-26T09:56:15;40.60;45.50
37518;DHT22;23366;52.498;13.446;2023-06-26T09:58:44;39.80;46.30
37518;DHT22;23366;52.498;13.446;2023-06-26T10:01:10;39.00;46.30
37518;DHT22;23366;52.498;13.446;2023-06-26T10:03:35;38.30;48.00
37518;DHT22;23366;52.498;13.446;2023-06-26T10:06:02;38.00;48.50
37518;DHT22;23366;52.498;13.446;2023-06-26T10:08:28;37.40;48.60
37518;DHT22;23366;52.498;13.446;2023-06-26T10:10:56;36.80;49.80
37518;DHT22;23366;52.498;13.446;2023-06-26T10:13:24;36.40;50.00
37518;DHT22;23366;52.498;13.446;2023-06-26T10:15:53;36.00;50.50
37518;DHT22;23366;52.498;13.446;2023-06-26T10:18:22;35.60;51.20
37518;DHT22;23366;52.498;13.446;2023-06-26T10:20:50;35.40;51.80
37518;DHT22;23366;52.498;13.446;2023-06-26T10:23:18;35.20;52.30
37518;DHT22;23366;52.498;13.446;2023-06-26T10:25:46;34.90;51.40
37518;DHT22;23366;52.498;13.446;2023-06-26T10:28:15;35.00;52.50
37518;DHT22;23366;52.498;13.446;2023-06-26T10:30:42;34.70;52.20
37518;DHT22;23366;52.498;13.446;2023-06-26T10:33:09;34.50;53.20
37518;DHT22;23366;52.498;13.446;2023-06-26T10:35:44;34.30;53.10
37518;DHT22;23366;52.498;13.446;2023-06-26T10:38:12;34.30;53.90
37518;DHT22;23366;52.498;13.446;2023-06-26T10:40:42;34.30;53.70
37518;DHT22;23366;52.498;13.446;2023-06-26T10:43:09;34.30;54.20
37518;DHT22;23366;52.498;13.446;2023-06-26T10:45:35;34.30;53.60
37518;DHT22;23366;52.498;13.446;2023-06-26T10:48:02;34.30;54.90
37518;DHT22;23366;52.498;13.446;2023-06-26T10:50:30;34.30;54.50
37518;DHT22;23366;52.498;13.446;2023-06-26T10:53:25;34.30;54.10
37518;DHT22;23366;52.498;13.446;2023-06-26T10:55:56;34.30;53.50
37518;DHT22;23366;52.498;13.446;2023-06-26T11:01:22;34.40;53.30
37518;DHT22;23366;52.498;13.446;2023-06-26T11:04:07;34.30;52.80
37518;DHT22;23366;52.498;13.446;2023-06-26T11:06:34;33.90;53.50
37518;DHT22;23366;52.498;13.446;2023-06-26T11:09:09;33.80;54.80
37518;DHT22;23366;52.498;13.446;2023-06-26T11:14:17;33.60;54.00
37518;DHT22;23366;52.498;13.446;2023-06-26T11:16:43;33.60;54.80
37518;DHT22;23366;52.498;13.446;2023-06-26T11:19:10;33.70;55.30
37518;DHT22;23366;52.498;13.446;2023-06-26T11:21:40;33.70;55.10
37518;DHT22;23366;52.498;13.446;2023-06-26T11:24:09;33.80;55.00
37518;DHT22;23366;52.498;13.446;2023-06-26T11:26:38;33.80;54.40
37518;DHT22;23366;52.498;13.446;2023-06-26T11:29:04;33.80;55.40
37518;DHT22;23366;52.498;13.446;2023-06-26T11:31:37;33.70;54.60
37518;DHT22;23366;52.498;13.446;2023-06-26T11:34:05;33.70;55.40
37518;DHT22;23366;52.498;13.446;2023-06-26T11:36:32;33.70;56.20
37518;DHT22;23366;52.498;13.446;2023-06-26T11:39:00;33.80;55.60
37518;DHT22;23366;52.498;13.446;2023-06-26T11:41:31;33.80;55.50
37518;DHT22;23366;52.498;13.446;2023-06-26T11:44:07;33.80;54.40
37518;DHT22;23366;52.498;13.446;2023-06-26T11:46:34;33.60;54.70
37518;DHT22;23366;52.498;13.446;2023-06-26T11:49:02;33.50;55.30
37518;DHT22;23366;52.498;13.446;2023-06-26T11:51:28;33.40;55.00
37518;DHT22;23366;52.498;13.446;2023-06-26T11:53:53;33.40;54.90
37518;DHT22;23366;52.498;13.446;2023-06-26T11:56:19;33.30;55.00
37518;DHT22;23366;52.498;13.446;2023-06-26T12:01:23;33.20;55.50
37518;DHT22;23366;52.498;13.446;2023-06-26T12:03:50;33.20;55.50
37518;DHT22;23366;52.498;13.446;2023-06-26T12:06:16;33.10;55.40
37518;DHT22;23366;52.498;13.446;2023-06-26T12:08:42;33.10;54.90
37518;DHT22;23366;52.498;13.446;2023-06-26T12:11:08;33.10;55.70
37518;DHT22;23366;52.498;13.446;2023-06-26T12:13:34;33.10;55.90
37518;DHT22;23366;52.498;13.446;2023-06-26T12:16:06;33.10;55.10
37518;DHT22;23366;52.498;13.446;2023-06-26T12:18:35;32.90;55.50
37518;DHT22;23366;52.498;13.446;2023-06-26T12:21:01;32.90;55.70
37518;DHT22;23366;52.498;13.446;2023-06-26T12:23:32;32.90;55.40
37518;DHT22;23366;52.498;13.446;2023-06-26T12:25:58;32.90;55.70
37518;DHT22;23366;52.498;13.446;2023-06-26T12:28:24;33.00;56.30
37518;DHT22;23366;52.498;13.446;2023-06-26T12:31:16;33.20;56.40
37518;DHT22;23366;52.498;13.446;2023-06-26T12:33:44;33.30;55.60
37518;DHT22;23366;52.498;13.446;2023-06-26T12:36:13;33.30;55.10
37518;DHT22;23366;52.498;13.446;2023-06-26T12:38:44;33.40;56.10
37518;DHT22;23366;52.498;13.446;2023-06-26T12:41:13;33.40;55.90
37518;DHT22;23366;52.498;13.446;2023-06-26T12:43:42;33.40;55.20
37518;DHT22;23366;52.498;13.446;2023-06-26T12:46:08;33.30;55.80
37518;DHT22;23366;52.498;13.446;2023-06-26T12:48:44;33.20;57.10
37518;DHT22;23366;52.498;13.446;2023-06-26T12:51:12;33.00;56.30
37518;DHT22;23366;52.498;13.446;2023-06-26T12:53:38;33.00;55.80
37518;DHT22;23366;52.498;13.446;2023-06-26T12:56:08;32.90;57.30
37518;DHT22;23366;52.498;13.446;2023-06-26T12:58:34;33.00;56.60
37518;DHT22;23366;52.498;13.446;2023-06-26T13:01:06;32.90;56.70
37518;DHT22;23366;52.498;13.446;2023-06-26T13:03:36;32.70;56.70
37518;DHT22;23366;52.498;13.446;2023-06-26T13:06:02;32.50;56.10
37518;DHT22;23366;52.498;13.446;2023-06-26T13:08:28;32.20;57.20
37518;DHT22;23366;52.498;13.446;2023-06-26T13:10:54;32.10;57.20
37518;DHT22;23366;52.498;13.446;2023-06-26T13:13:19;32.10;58.00
37518;DHT22;23366;52.498;13.446;2023-06-26T13:15:45;32.10;57.20
37518;DHT22;23366;52.498;13.446;2023-06-26T13:18:10;32.10;57.90
37518;DHT22;23366;52.498;13.446;2023-06-26T13:20:36;32.10;57.80
37518;DHT22;23366;52.498;13.446;2023-06-26T13:23:01;32.30;58.50
37518;DHT22;23366;52.498;13.446;2023-06-26T13:25:27;32.40;57.70
37518;DHT22;23366;52.498;13.446;2023-06-26T13:27:52;32.50;57.50
37518;DHT22;23366;52.498;13.446;2023-06-26T13:30:18;32.40;57.10
37518;DHT22;23366;52.498;13.446;2023-06-26T13:32:43;32.40;58.20
37518;DHT22;23366;52.498;13.446;2023-06-26T13:35:09;32.40;58.10
37518;DHT22;23366;52.498;13.446;2023-06-26T13:37:35;32.40;57.50
37518;DHT22;23366;52.498;13.446;2023-06-26T13:40:01;32.40;57.40
37518;DHT22;23366;52.498;13.446;2023-06-26T13:42:28;32.20;57.20
37518;DHT22;23366;52.498;13.446;2023-06-26T13:44:53;32.20;57.80
37518;DHT22;23366;52.498;13.446;2023-06-26T13:47:19;32.00;57.70
37518;DHT22;23366;52.498;13.446;2023-06-26T13:49:44;31.80;58.10
37518;DHT22;23366;52.498;13.446;2023-06-26T13:52:16;31.80;58.60
37518;DHT22;23366;52.498;13.446;2023-06-26T13:54:41;31.80;58.70
37518;DHT22;23366;52.498;13.446;2023-06-26T13:57:07;31.70;58.50
37518;DHT22;23366;52.498;13.446;2023-06-26T13:59:33;31.70;58.40
37518;DHT22;23366;52.498;13.446;2023-06-26T14:01:59;31.70;58.50
37518;DHT22;23366;52.498;13.446;2023-06-26T14:04:25;31.70;58.40
37518;DHT22;23366;52.498;13.446;2023-06-26T14:06:51;31.70;58.10
37518;DHT22;23366;52.498;13.446;2023-06-26T14:09:17;31.70;58.40
37518;DHT22;23366;52.498;13.446;2023-06-26T14:11:43;31.50;58.90
37518;DHT22;23366;52.498;13.446;2023-06-26T14:14:09;31.30;58.60
37518;DHT22;23366;52.498;13.446;2023-06-26T14:16:34;31.20;59.00
37518;DHT22;23366;52.498;13.446;2023-06-26T14:19:00;31.10;59.30
37518;DHT22;23366;52.498;13.446;2023-06-26T14:21:25;31.00;59.30
37518;DHT22;23366;52.498;13.446;2023-06-26T14:23:53;30.90;59.60
37518;DHT22;23366;52.498;13.446;2023-06-26T14:26:18;30.80;60.00
37518;DHT22;23366;52.498;13.446;2023-06-26T14:28:44;30.50;63.10
37518;DHT22;23366;52.498;13.446;2023-06-26T14:31:10;30.20;73.80
37518;DHT22;23366;52.498;13.446;2023-06-26T14:33:35;29.40;87.40
37518;DHT22;23366;52.498;13.446;2023-06-26T14:36:01;28.00;99.70
37518;DHT22;23366;52.498;13.446;2023-06-26T14:38:26;26.50;99.90
37518;DHT22;23366;52.498;13.446;2023-06-26T14:40:52;25.30;99.90
37518;DHT22;23366;52.498;13.446;2023-06-26T14:43:17;24.40;99.90
37518;DHT22;23366;52.498;13.446;2023-06-26T14:45:43;23.70;99.90
37518;DHT22;23366;52.498;13.446;2023-06-26T14:48:08;23.30;99.90
37518;DHT22;23366;52.498;13.446;2023-06-26T14:50:34;23.00;99.90
37518;DHT22;23366;52.498;13.446;2023-06-26T14:52:59;22.80;99.90
37518;DHT22;23366;52.498;13.446;2023-06-26T14:55:25;22.50;99.90
37518;DHT22;23366;52.498;13.446;2023-06-26T14:57:50;22.40;99.90
37518;DHT22;23366;52.498;13.446;2023-06-26T15:00:16;22.30;99.90
37518;DHT22;23366;52.498;13.446;2023-06-26T15:02:42;22.30;99.90
37518;DHT22;23366;52.498;13.446;2023-06-26T15:05:10;22.20;99.90
37518;DHT22;23366;52.498;13.446;2023-06-26T15:07:36;22.10;99.90
37518;DHT22;23366;52.498;13.446;2023-06-26T15:10:02;22.10;99.90
37518;DHT22;23366;52.498;13.446;2023-06-26T15:12:27;22.00;99.90
37518;DHT22;23366;52.498;13.446;2023-06-26T15:14:53;22.00;99.90
37518;DHT22;23366;52.498;13.446;2023-06-26T15:17:18;22.00;99.90
37518;DHT22;23366;52.498;13.446;2023-06-26T15:19:44;22.00;99.90
37518;DHT22;23366;52.498;13.446;2023-06-26T15:22:09;22.00;99.90
37518;DHT22;23366;52.498;13.446;2023-06-26T15:24:35;21.90;99.90
37518;DHT22;23366;52.498;13.446;2023-06-26T15:27:00;21.90;99.90